aviador You're here:

LFSN Decoded Metar

NANCY ESSEY in FRANCE
Report Time2017-10-22 06:30:00
UTC Time2017-10-22 06:37:03
Flight Rules mvfr MVFR
Wind220° at 09 kt
W.Decomp.*RWY 21: 8.9 kt HW 1.6 kt RCW
W.Rank220° ranks 9
Current wind is above 220° avg. (8.0)
Visibility9999 m
Phenomena:N/A
Clouds:Broken 022 Hf
Expected CloudBase > 1,200 ft AGL from Temp-Dew spread
Ceiling2,200 ft
Temp09°C (ISA -5)
Dew Point06°C (82% RH)
AAT4.9°C
QNH1017 hPa
Density Alt157 ft
Elevation712 ft
Report Wrong Elevation
Raw Report
METAR LFSN 220630Z AUTO 22009KT 190V260 9999 BKN022 09/06 Q1017=

Extra information for LFSN:More info

Metar Taf Metar & Taf Last 4 Metars F.Rules Stats Wind Profile Meteogram Temp Stats Airport Information Weather charts Add Link Nearby VenuesMetar ALERT Operation Metar Decoded Social comments